createdAt,value
2019-02-09T00:00:25.018Z,5.77
2019-02-09T00:05:30.657Z,5.63
2019-02-09T00:10:36.793Z,5.57
2019-02-09T00:15:42.169Z,5.47
2019-02-09T00:20:47.470Z,5.43
2019-02-09T00:25:53.759Z,5.43
2019-02-09T00:30:59.276Z,5.34
2019-02-09T00:36:04.772Z,5.36
2019-02-09T00:41:10.064Z,5.27
2019-02-09T00:46:15.549Z,5.23
2019-02-09T00:51:21.123Z,5.10
2019-02-09T00:56:26.573Z,5.10
2019-02-09T01:01:31.766Z,5.05
2019-02-09T01:06:36.929Z,4.97
2019-02-09T01:11:42.104Z,4.92
2019-02-09T01:16:47.603Z,4.89
2019-02-09T01:21:53.640Z,4.86
2019-02-09T01:26:59.143Z,4.70
2019-02-09T01:32:04.466Z,4.53
2019-02-09T01:37:10.844Z,4.37
2019-02-09T01:42:16.640Z,4.49
2019-02-09T01:47:22.935Z,4.60
2019-02-09T01:52:28.061Z,4.89
2019-02-09T01:57:33.551Z,5.03
2019-02-09T02:02:38.716Z,5.18
2019-02-09T02:07:44.235Z,5.31
2019-02-09T02:12:49.795Z,5.35
2019-02-09T02:17:54.973Z,5.41
2019-02-09T02:23:00.613Z,5.43
2019-02-09T02:28:05.986Z,5.36
2019-02-09T02:33:11.184Z,5.29
2019-02-09T02:38:18.066Z,5.33
2019-02-09T02:43:23.346Z,5.38
2019-02-09T02:48:28.871Z,5.49
2019-02-09T02:53:34.023Z,5.43
2019-02-09T02:58:40.272Z,5.33
2019-02-09T03:03:45.432Z,5.45
2019-02-09T03:08:51.289Z,5.49
2019-02-09T03:13:56.513Z,5.46
2019-02-09T03:19:01.815Z,5.44
2019-02-09T03:24:07.409Z,5.39
2019-02-09T03:29:12.906Z,5.43
2019-02-09T03:34:18.984Z,5.44
2019-02-09T03:39:24.156Z,5.45
2019-02-09T03:44:29.646Z,5.55
2019-02-09T03:49:35.622Z,5.52
2019-02-09T03:54:41.759Z,5.50
2019-02-09T03:59:46.940Z,5.55
2019-02-09T04:04:52.099Z,5.64
2019-02-09T04:09:57.730Z,5.70
2019-02-09T04:15:03.009Z,5.73
2019-02-09T04:20:10.461Z,5.86
2019-02-09T04:25:17.828Z,5.89
2019-02-09T04:30:25.056Z,5.84
2019-02-09T04:35:30.292Z,5.74
2019-02-09T04:40:37.096Z,5.70
2019-02-09T04:45:42.264Z,5.65
2019-02-09T04:50:47.889Z,5.56
2019-02-09T04:55:53.539Z,5.45
2019-02-09T05:00:59.154Z,5.27
2019-02-09T05:06:04.732Z,5.13
2019-02-09T05:11:10.260Z,5.16
2019-02-09T05:16:15.745Z,5.08
2019-02-09T05:21:23.302Z,5.02
2019-02-09T05:26:28.477Z,5.03
2019-02-09T05:31:33.706Z,4.99
2019-02-09T05:36:39.385Z,5.01
2019-02-09T05:41:44.839Z,5.00
2019-02-09T05:46:50.024Z,5.07
2019-02-09T05:51:55.565Z,5.02
2019-02-09T05:57:00.759Z,5.08
2019-02-09T06:02:06.058Z,5.13
2019-02-09T06:07:11.488Z,5.16
2019-02-09T06:12:17.001Z,5.30
2019-02-09T06:17:22.185Z,5.31
2019-02-09T06:22:27.720Z,5.25
2019-02-09T06:27:33.606Z,5.24
2019-02-09T06:32:38.816Z,5.19
2019-02-09T06:37:43.992Z,5.19
2019-02-09T06:42:49.371Z,5.09
2019-02-09T06:47:56.526Z,5.05
2019-02-09T06:53:01.726Z,5.10
2019-02-09T06:58:07.000Z,5.04
2019-02-09T07:03:12.197Z,5.03
2019-02-09T07:08:18.509Z,4.94
2019-02-09T07:13:24.056Z,4.89
2019-02-09T07:18:29.261Z,4.98
2019-02-09T07:23:34.377Z,4.94
2019-02-09T07:28:39.614Z,5.03
2019-02-09T07:33:44.985Z,5.13
2019-02-09T07:38:50.176Z,5.08
2019-02-09T07:43:55.536Z,5.02
2019-02-09T07:49:00.717Z,5.15
2019-02-09T07:54:05.947Z,5.19
2019-02-09T07:59:11.537Z,5.29
2019-02-09T08:04:17.864Z,5.37
2019-02-09T08:09:23.908Z,5.48
2019-02-09T08:14:29.388Z,5.64
2019-02-09T08:19:34.738Z,5.71
2019-02-09T08:24:41.741Z,5.89
2019-02-09T08:29:47.911Z,6.12
2019-02-09T08:34:53.226Z,6.25
2019-02-09T08:39:58.403Z,6.43
2019-02-09T08:45:04.273Z,6.57
2019-02-09T08:50:13.471Z,6.77
2019-02-09T08:55:19.200Z,6.93
2019-02-09T09:00:27.924Z,7.12
2019-02-09T09:05:33.633Z,7.28
2019-02-09T09:10:38.910Z,7.43
2019-02-09T09:15:46.861Z,7.45
2019-02-09T09:20:55.767Z,7.63
2019-02-09T09:26:00.947Z,7.71
2019-02-09T09:31:06.507Z,7.92
2019-02-09T09:36:11.727Z,7.95
2019-02-09T09:41:16.918Z,8.13
2019-02-09T09:46:23.995Z,8.22
2019-02-09T09:51:30.309Z,8.13
2019-02-09T09:56:35.642Z,8.14
2019-02-09T10:01:40.819Z,8.17
2019-02-09T10:06:47.023Z,8.20
2019-02-09T10:11:52.202Z,8.38
2019-02-09T10:16:57.381Z,8.27
2019-02-09T10:22:03.017Z,8.18
2019-02-09T10:27:08.627Z,8.22
2019-02-09T10:32:14.550Z,8.50
2019-02-09T10:37:20.446Z,8.55
2019-02-09T10:42:26.443Z,8.44
2019-02-09T10:47:31.911Z,8.43
2019-02-09T10:52:37.639Z,8.46
2019-02-09T10:57:44.090Z,8.43
2019-02-09T11:02:52.148Z,8.55
2019-02-09T11:07:56.699Z,8.76
2019-02-09T11:13:01.971Z,8.70
2019-02-09T11:18:08.148Z,8.71
2019-02-09T11:23:13.330Z,8.82
2019-02-09T11:28:18.513Z,8.80
2019-02-09T11:33:24.797Z,8.69
2019-02-09T11:38:30.935Z,8.92
2019-02-09T11:43:36.209Z,9.41
2019-02-09T11:48:41.672Z,9.14
2019-02-09T11:53:47.208Z,9.17
2019-02-09T11:58:52.623Z,9.30
2019-02-09T12:03:58.197Z,9.56
2019-02-09T12:09:05.244Z,9.49
2019-02-09T12:14:11.051Z,9.60
2019-02-09T12:19:16.231Z,9.36
2019-02-09T12:24:21.704Z,9.39
2019-02-09T12:29:27.681Z,9.61
2019-02-09T12:34:33.083Z,9.93
2019-02-09T12:39:38.284Z,9.72
2019-02-09T12:44:43.869Z,9.71
2019-02-09T12:49:49.057Z,9.61
2019-02-09T12:54:54.708Z,9.41
2019-02-09T13:00:01.275Z,9.22
2019-02-09T13:05:07.105Z,9.45
2019-02-09T13:10:13.135Z,9.60
2019-02-09T13:15:20.707Z,9.59
2019-02-09T13:20:27.076Z,9.47
2019-02-09T13:25:32.335Z,9.16
2019-02-09T13:30:38.935Z,9.38
2019-02-09T13:35:45.175Z,9.59
2019-02-09T13:40:51.171Z,9.59
2019-02-09T13:45:56.433Z,9.93
2019-02-09T13:51:02.768Z,9.81
2019-02-09T13:56:07.953Z,9.72
2019-02-09T14:01:13.912Z,9.63
2019-02-09T14:06:19.174Z,9.61
2019-02-09T14:11:24.844Z,9.70
2019-02-09T14:16:38.465Z,9.32
2019-02-09T14:21:40.077Z,9.31
2019-02-09T14:26:45.570Z,9.09
2019-02-09T14:31:50.865Z,9.10
2019-02-09T14:36:57.959Z,9.58
2019-02-09T14:42:03.222Z,9.21
2019-02-09T14:47:08.930Z,9.34
2019-02-09T14:52:14.665Z,9.44
2019-02-09T14:57:21.392Z,9.30
2019-02-09T15:02:27.672Z,9.24
2019-02-09T15:07:32.933Z,9.20
2019-02-09T15:12:38.538Z,9.01
2019-02-09T15:17:43.813Z,9.32
2019-02-09T15:22:49.705Z,9.29
2019-02-09T15:27:54.931Z,9.21
2019-02-09T15:33:01.312Z,8.87
2019-02-09T15:38:06.583Z,8.66
2019-02-09T15:43:11.764Z,8.63
2019-02-09T15:48:16.953Z,8.47
2019-02-09T15:53:22.488Z,8.27
2019-02-09T15:58:27.680Z,8.14
2019-02-09T16:03:33.195Z,8.06
2019-02-09T16:08:38.424Z,7.91
2019-02-09T16:13:45.810Z,7.82
2019-02-09T16:18:51.281Z,7.61
2019-02-09T16:23:57.435Z,7.47
2019-02-09T16:29:02.799Z,7.33
2019-02-09T16:34:08.010Z,7.23
2019-02-09T16:39:13.837Z,7.18
2019-02-09T16:44:19.865Z,7.06
2019-02-09T16:49:25.357Z,7.00
2019-02-09T16:54:30.740Z,6.87
2019-02-09T16:59:37.316Z,6.78
2019-02-09T17:04:42.493Z,6.71
2019-02-09T17:09:48.063Z,6.78
2019-02-09T17:14:53.557Z,6.71
2019-02-09T17:19:59.302Z,6.69
2019-02-09T17:25:07.655Z,6.70
2019-02-09T17:30:16.667Z,6.62
2019-02-09T17:35:22.010Z,6.62
2019-02-09T17:40:38.804Z,6.67
2019-02-09T17:45:50.049Z,6.63
2019-02-09T17:50:55.587Z,6.65
2019-02-09T17:56:01.522Z,6.58
2019-02-09T18:01:11.564Z,6.49
2019-02-09T18:06:17.195Z,6.42
2019-02-09T18:11:23.264Z,6.35
2019-02-09T18:16:28.444Z,6.33
2019-02-09T18:21:34.130Z,6.28
2019-02-09T18:26:39.335Z,6.27
2019-02-09T18:31:45.521Z,6.22
2019-02-09T18:36:51.008Z,6.36
2019-02-09T18:41:56.983Z,6.32
2019-02-09T18:47:02.939Z,6.32
2019-02-09T18:52:09.073Z,6.31
2019-02-09T18:57:14.248Z,6.43
2019-02-09T19:02:19.728Z,6.43
2019-02-09T19:07:25.349Z,6.56
2019-02-09T19:12:30.751Z,6.57
2019-02-09T19:17:37.442Z,6.47
2019-02-09T19:22:42.805Z,6.57
2019-02-09T19:27:48.085Z,6.53
2019-02-09T19:32:53.832Z,6.52
2019-02-09T19:37:59.036Z,6.51
2019-02-09T19:43:05.421Z,6.33
2019-02-09T19:48:11.447Z,6.43
2019-02-09T19:53:17.185Z,6.19
2019-02-09T19:58:22.355Z,6.13
2019-02-09T20:03:27.859Z,6.15
2019-02-09T20:08:34.508Z,6.16
2019-02-09T20:13:40.124Z,6.19
2019-02-09T20:18:45.656Z,6.21
2019-02-09T20:23:51.703Z,6.32
2019-02-09T20:28:56.969Z,6.32
2019-02-09T20:34:02.546Z,6.26
2019-02-09T20:39:09.987Z,6.23
2019-02-09T20:44:16.607Z,6.07
2019-02-09T20:49:21.811Z,6.06
2019-02-09T20:54:27.702Z,5.91
2019-02-09T20:59:33.379Z,5.77
2019-02-09T21:04:38.654Z,5.47
2019-02-09T21:09:44.304Z,5.32
2019-02-09T21:14:50.226Z,5.28
2019-02-09T21:19:56.657Z,5.44
2019-02-09T21:25:06.684Z,5.48
2019-02-09T21:30:15.108Z,5.56
2019-02-09T21:35:21.592Z,5.69
2019-02-09T21:40:27.877Z,5.72
2019-02-09T21:45:33.113Z,5.74
2019-02-09T21:50:38.783Z,5.87
2019-02-09T21:55:44.037Z,5.81
2019-02-09T22:00:49.214Z,5.89
2019-02-09T22:05:55.409Z,5.84
2019-02-09T22:11:00.584Z,5.69
2019-02-09T22:16:05.965Z,5.49
2019-02-09T22:21:12.292Z,5.69
2019-02-09T22:26:17.498Z,5.84
2019-02-09T22:31:22.744Z,5.88
2019-02-09T22:36:28.061Z,5.88
2019-02-09T22:41:33.746Z,5.84
2019-02-09T22:46:38.949Z,5.70
2019-02-09T22:51:44.689Z,5.57
2019-02-09T22:56:50.824Z,5.49
2019-02-09T23:01:56.786Z,5.39
2019-02-09T23:07:08.940Z,5.61
2019-02-09T23:12:14.221Z,5.41
2019-02-09T23:17:19.399Z,5.15
2019-02-09T23:22:24.921Z,5.08
2019-02-09T23:27:30.192Z,5.21
2019-02-09T23:32:35.648Z,5.16
2019-02-09T23:37:40.904Z,5.11
2019-02-09T23:42:46.462Z,5.21
2019-02-09T23:47:51.647Z,5.25
2019-02-09T23:52:57.167Z,5.31
2019-02-09T23:58:02.333Z,5.25
